Etusivu
METAR-TAF:

METAR-TAF

Lentoasemat :

Edmontonin kansainvälinen lentoasema

Edmonton, Alberta, Kanada

Leveyspiiri: 53-18N, Pituuspiiri: 113-35W, korkeus merenpinnasta: 715 m

Tämänhetkinen sää

Tämä raportti tehtiin 39 minuuttia sitten, kello 19.00 UTC
Tuuli 5 kn lännestä/lounaasta
Lämpötila 6°C
Kosteus 52%
Ilmanpaine 1021 hPa
Näkyvyys: 32.2 km
Muutamia pilviä 23000 ft:n korkeudessa

METAR: CYEG 191900Z 25005KT 20SM FEW230 06/M03 A3016 RMK CI1 SLP244

Aika: 13:39 (19:39 UTC)

Sääennuste

Tämä raportti tehtiin 2 tuntia ja 1 minuuttia sitten, kello 17.38 UTC
Ennuste voimassa 19. päivästä klo 18 UTC - 20. päivään klo 18 UTC
Tuuli 8 kn lännestä
Näkyvyys: 10 km
Hajanaisia pilviä 26000 ft:n korkeudessa
Tulossa
19. päivästä klo 22 UTC - 19. päivään klo 24 UTC
Tuuli 5 kn etelästä

TAF: CYEG 191738Z 1918/2018 26008KT P6SM SCT260 BECMG 1922/1924 18005KT RMK NXT FCST BY 192100Z

Säähavainnot ja -ennusteet yli 4000 lentoasemalta (METAR- ja TAF-raportit).

Käytössä olevat sääasemat on merkitty karttaan keltaisilla ja punaisilla pisteillä.

Aseta hiiri pisteen päälle nähdäksesi sääaseman nimen.

Klikkaa sitten nähdäksesi säähavainnot ja -ennusteet.

Kartan vaihtaminen: klikkaa mustalla rastilla varustettuja vihreitä pisteitä, niin voit zoomata sisään; viivalla varustettua vihreää pistettä, niin voit zoomata ulos tai vihreitä nuolia, niin pääset viereisille kartoille.


METAR-TAF: